createdAt,value
2019-05-14T00:01:22.135Z,2.10
2019-05-14T00:03:51.874Z,1.60
2019-05-14T00:06:21.950Z,3.40
2019-05-14T00:08:52.185Z,1.60
2019-05-14T00:11:22.055Z,1.87
2019-05-14T00:13:52.049Z,2.20
2019-05-14T00:16:24.249Z,1.40
2019-05-14T00:18:52.843Z,1.87
2019-05-14T00:21:22.416Z,1.80
2019-05-14T00:23:51.926Z,1.70
2019-05-14T00:26:21.635Z,2.00
2019-05-14T00:28:52.119Z,1.77
2019-05-14T00:31:21.615Z,1.97
2019-05-14T00:33:51.419Z,1.83
2019-05-14T00:36:21.522Z,2.20
2019-05-14T00:38:51.416Z,2.00
2019-05-14T00:41:21.511Z,2.00
2019-05-14T00:43:51.466Z,1.80
2019-05-14T00:46:22.098Z,2.33
2019-05-14T00:48:51.667Z,1.70
2019-05-14T00:51:21.610Z,1.73
2019-05-14T00:53:51.705Z,1.53
2019-05-14T00:56:21.702Z,1.70
2019-05-14T00:58:52.139Z,2.10
2019-05-14T01:01:21.847Z,2.00
2019-05-14T01:03:52.276Z,1.80
2019-05-14T01:06:21.977Z,1.77
2019-05-14T01:08:51.961Z,1.68
2019-05-14T01:11:22.162Z,1.53
2019-05-14T01:13:52.346Z,1.57
2019-05-14T01:16:22.401Z,2.07
2019-05-14T01:18:51.968Z,1.73
2019-05-14T01:21:22.027Z,2.07
2019-05-14T01:23:51.578Z,2.30
2019-05-14T01:26:21.779Z,1.80
2019-05-14T01:28:51.572Z,1.53
2019-05-14T01:31:21.914Z,1.57
2019-05-14T01:33:51.707Z,1.93
2019-05-14T01:36:21.607Z,1.80
2019-05-14T01:38:51.426Z,2.10
2019-05-14T01:41:22.403Z,1.92
2019-05-14T01:43:53.048Z,1.92
2019-05-14T01:46:23.187Z,1.93
2019-05-14T01:48:53.760Z,2.10
2019-05-14T01:51:23.260Z,2.37
2019-05-14T01:53:52.770Z,1.77
2019-05-14T01:56:22.281Z,2.07
2019-05-14T01:58:52.374Z,1.75
2019-05-14T02:01:22.074Z,1.77
2019-05-14T02:03:51.881Z,1.83
2019-05-14T02:06:21.531Z,1.90
2019-05-14T02:08:51.612Z,1.67
2019-05-14T02:11:22.151Z,1.60
2019-05-14T02:13:52.017Z,2.00
2019-05-14T02:16:22.033Z,1.82
2019-05-14T02:18:52.298Z,2.20
2019-05-14T02:21:22.868Z,1.98
2019-05-14T02:23:52.420Z,1.60
2019-05-14T02:26:22.197Z,1.77
2019-05-14T02:28:51.697Z,1.90
2019-05-14T02:31:22.164Z,2.30
2019-05-14T02:33:52.016Z,2.00
2019-05-14T02:36:21.456Z,2.37
2019-05-14T02:38:51.030Z,2.30
2019-05-14T02:41:20.569Z,2.10
2019-05-14T02:43:50.615Z,1.73
2019-05-14T02:46:22.035Z,1.72
2019-05-14T02:48:52.268Z,1.90
2019-05-14T02:51:21.764Z,1.95
2019-05-14T02:53:51.301Z,2.15
2019-05-14T02:56:20.773Z,2.10
2019-05-14T02:58:50.286Z,2.42
2019-05-14T03:01:20.202Z,1.97
2019-05-14T03:03:49.796Z,1.60
2019-05-14T03:06:20.081Z,1.63
2019-05-14T03:08:49.867Z,2.33
2019-05-14T03:11:20.103Z,2.03
2019-05-14T03:13:49.846Z,2.10
2019-05-14T03:16:30.031Z,2.20
2019-05-14T03:18:51.502Z,1.83
2019-05-14T03:21:21.044Z,2.00
2019-05-14T03:23:50.632Z,2.25
2019-05-14T03:26:20.117Z,2.10
2019-05-14T03:28:50.111Z,2.50
2019-05-14T03:31:22.347Z,2.30
2019-05-14T03:33:52.794Z,2.27
2019-05-14T03:36:26.552Z,2.53
2019-05-14T03:38:53.317Z,2.27
2019-05-14T03:41:22.818Z,2.07
2019-05-14T03:43:52.410Z,3.23
2019-05-14T03:46:39.779Z,1.80
2019-05-14T03:48:55.314Z,2.72
2019-05-14T03:51:24.859Z,2.83
2019-05-14T03:54:02.018Z,2.73
2019-05-14T03:56:25.707Z,2.70
2019-05-14T03:58:55.278Z,2.33
2019-05-14T04:01:25.061Z,2.40
2019-05-14T04:03:54.656Z,2.83
2019-05-14T04:06:25.535Z,2.60
2019-05-14T04:08:55.236Z,2.60
2019-05-14T04:11:25.185Z,3.33
2019-05-14T04:13:56.081Z,2.50
2019-05-14T04:16:29.192Z,3.43
2019-05-14T04:19:01.902Z,4.17
2019-05-14T04:21:32.061Z,3.17
2019-05-14T04:24:01.603Z,3.65
2019-05-14T04:26:31.566Z,3.30
2019-05-14T04:29:01.557Z,3.47
2019-05-14T04:31:32.888Z,2.70
2019-05-14T04:34:03.104Z,3.00
2019-05-14T04:36:32.618Z,2.83
2019-05-14T04:39:02.258Z,2.83
2019-05-14T04:41:31.764Z,3.20
2019-05-14T04:44:01.262Z,3.53
2019-05-14T04:46:31.181Z,3.20
2019-05-14T04:49:00.686Z,3.10
2019-05-14T04:51:30.649Z,2.90
2019-05-14T04:54:00.447Z,3.37
2019-05-14T04:56:30.474Z,3.00
2019-05-14T04:59:00.079Z,3.33
2019-05-14T05:01:29.827Z,3.60
2019-05-14T05:03:59.468Z,3.40
2019-05-14T05:06:29.355Z,3.37
2019-05-14T05:09:00.156Z,3.00
2019-05-14T05:11:30.620Z,3.60
2019-05-14T05:14:00.115Z,2.95
2019-05-14T05:16:29.896Z,3.40
2019-05-14T05:18:59.719Z,3.25
2019-05-14T05:21:29.548Z,3.67
2019-05-14T05:23:59.138Z,3.60
2019-05-14T05:26:28.782Z,2.90
2019-05-14T05:29:06.361Z,3.60
2019-05-14T05:31:30.530Z,3.60
2019-05-14T05:34:00.029Z,3.33
2019-05-14T05:36:30.259Z,3.10
2019-05-14T05:38:59.767Z,3.15
2019-05-14T05:41:30.709Z,3.43
2019-05-14T05:44:00.192Z,3.50
2019-05-14T05:46:30.561Z,3.50
2019-05-14T05:49:01.110Z,3.83
2019-05-14T05:51:30.655Z,4.33
2019-05-14T05:54:00.204Z,3.50
2019-05-14T05:56:30.448Z,3.77
2019-05-14T05:59:00.625Z,3.40
2019-05-14T06:01:41.703Z,3.90
2019-05-14T06:04:01.546Z,3.40
2019-05-14T06:06:31.041Z,2.77
2019-05-14T06:09:00.524Z,3.00
2019-05-14T06:11:30.321Z,3.30
2019-05-14T06:13:59.801Z,3.33
2019-05-14T06:16:30.310Z,3.30
2019-05-14T06:18:59.798Z,3.50
2019-05-14T06:21:30.249Z,2.97
2019-05-14T06:24:02.902Z,2.87
2019-05-14T06:26:30.926Z,2.87
2019-05-14T06:29:00.501Z,2.90
2019-05-14T06:31:30.092Z,2.43
2019-05-14T06:33:59.567Z,2.57
2019-05-14T06:36:29.311Z,2.58
2019-05-14T06:38:58.846Z,2.27
2019-05-14T06:41:28.574Z,2.00
2019-05-14T06:43:59.141Z,2.03
2019-05-14T06:46:29.294Z,2.10
2019-05-14T06:48:59.211Z,2.10
2019-05-14T06:51:28.977Z,2.08
2019-05-14T06:53:58.957Z,2.20
2019-05-14T06:56:28.569Z,1.63
2019-05-14T06:58:58.602Z,2.10
2019-05-14T07:01:29.357Z,2.20
2019-05-14T07:03:59.856Z,1.93
2019-05-14T07:06:30.274Z,2.27
2019-05-14T07:08:59.813Z,1.80
2019-05-14T07:11:29.958Z,2.13
2019-05-14T07:13:59.492Z,1.87
2019-05-14T07:16:28.966Z,1.57
2019-05-14T07:18:59.157Z,1.53
2019-05-14T07:21:29.327Z,1.83
2019-05-14T07:23:59.430Z,2.20
2019-05-14T07:26:29.704Z,2.00
2019-05-14T07:28:59.371Z,2.17
2019-05-14T07:31:29.225Z,1.70
2019-05-14T07:33:58.860Z,1.70
2019-05-14T07:36:29.333Z,2.05
2019-05-14T07:39:00.345Z,1.53
2019-05-14T07:41:30.855Z,1.40
2019-05-14T07:44:00.351Z,1.97
2019-05-14T07:46:30.934Z,1.60
2019-05-14T07:49:08.116Z,1.77
2019-05-14T07:51:31.710Z,1.80
2019-05-14T07:54:01.296Z,1.65
2019-05-14T07:56:30.813Z,1.40
2019-05-14T07:59:02.314Z,1.80
2019-05-14T08:01:31.668Z,1.40
2019-05-14T08:04:01.903Z,1.47
2019-05-14T08:06:31.392Z,1.73
2019-05-14T08:09:01.809Z,1.80
2019-05-14T08:11:31.673Z,1.33
2019-05-14T08:14:01.535Z,1.30
2019-05-14T08:16:31.020Z,1.27
2019-05-14T08:19:00.562Z,1.47
2019-05-14T08:21:30.064Z,1.50
2019-05-14T08:23:59.578Z,1.95
2019-05-14T08:26:29.455Z,1.13
2019-05-14T08:28:59.047Z,1.67
2019-05-14T08:31:29.241Z,1.62
2019-05-14T08:34:04.845Z,1.53
2019-05-14T08:36:31.165Z,1.20
2019-05-14T08:39:00.662Z,1.33
2019-05-14T08:41:30.248Z,1.43
2019-05-14T08:43:59.775Z,1.30
2019-05-14T08:46:29.830Z,1.60
2019-05-14T08:48:59.435Z,1.20
2019-05-14T08:51:29.751Z,1.70
2019-05-14T08:53:59.485Z,1.03
2019-05-14T08:56:29.015Z,1.50
2019-05-14T08:58:59.164Z,1.30
2019-05-14T09:01:29.378Z,1.50
2019-05-14T09:03:59.483Z,1.15
2019-05-14T09:06:29.917Z,1.30
2019-05-14T09:09:00.498Z,1.57
2019-05-14T09:11:35.501Z,1.40
2019-05-14T09:14:03.004Z,1.30
2019-05-14T09:16:43.243Z,1.30
2019-05-14T09:19:04.005Z,1.43
2019-05-14T09:21:34.643Z,1.30
2019-05-14T09:24:04.718Z,1.07
2019-05-14T09:26:34.328Z,1.27
2019-05-14T09:29:18.151Z,1.50
2019-05-14T09:31:35.324Z,1.30
2019-05-14T09:34:04.914Z,1.30
2019-05-14T09:36:34.442Z,1.23
2019-05-14T09:39:06.162Z,1.37
2019-05-14T09:41:35.635Z,1.40
2019-05-14T09:44:05.414Z,1.27
2019-05-14T09:46:35.425Z,1.15
2019-05-14T09:49:04.991Z,1.07
2019-05-14T09:51:34.502Z,1.20
2019-05-14T09:54:04.107Z,1.10
2019-05-14T09:56:33.624Z,1.20
2019-05-14T09:59:03.133Z,1.43
2019-05-14T10:01:33.603Z,1.10
2019-05-14T10:04:03.208Z,1.15
2019-05-14T10:06:32.759Z,1.10
2019-05-14T10:09:02.327Z,1.27
2019-05-14T10:11:33.121Z,1.23
2019-05-14T10:14:02.933Z,1.20
2019-05-14T10:16:32.458Z,1.50
2019-05-14T10:19:02.228Z,1.20
2019-05-14T10:21:31.745Z,1.20
2019-05-14T10:24:01.328Z,1.30
2019-05-14T10:26:30.926Z,1.47
2019-05-14T10:29:00.435Z,1.35
2019-05-14T10:31:30.505Z,1.20
2019-05-14T10:33:59.965Z,1.30
2019-05-14T10:36:29.985Z,1.30
2019-05-14T10:38:59.866Z,1.20
2019-05-14T10:41:29.426Z,1.30
2019-05-14T10:43:59.245Z,1.20
2019-05-14T10:46:29.527Z,1.60
2019-05-14T10:49:14.626Z,1.10
2019-05-14T10:51:30.437Z,1.47
2019-05-14T10:53:59.930Z,1.53
2019-05-14T10:56:29.909Z,1.30
2019-05-14T10:59:00.565Z,1.10
2019-05-14T11:01:30.129Z,1.53
2019-05-14T11:03:59.665Z,1.27
2019-05-14T11:06:29.577Z,1.10
2019-05-14T11:09:00.087Z,1.30
2019-05-14T11:11:31.080Z,1.30
2019-05-14T11:14:00.573Z,1.20
2019-05-14T11:16:30.330Z,1.40
2019-05-14T11:18:59.818Z,1.05
2019-05-14T11:21:30.370Z,1.20
2019-05-14T11:23:59.863Z,1.30
2019-05-14T11:26:29.787Z,1.00
2019-05-14T11:28:59.209Z,1.00
2019-05-14T11:31:29.929Z,1.00
2019-05-14T11:33:59.957Z,1.17
2019-05-14T11:36:30.350Z,1.10
2019-05-14T11:39:03.642Z,1.30
2019-05-14T11:41:32.349Z,1.40
2019-05-14T11:44:02.462Z,1.00
2019-05-14T11:46:44.358Z,1.10
2019-05-14T11:49:04.101Z,1.20
2019-05-14T11:51:58.863Z,0.97
2019-05-14T11:54:04.945Z,1.20
2019-05-14T11:56:34.515Z,1.17
2019-05-14T11:59:04.314Z,1.50
2019-05-14T12:01:33.850Z,1.10
2019-05-14T12:04:04.292Z,0.80
2019-05-14T12:06:33.816Z,1.10
2019-05-14T12:09:05.525Z,0.80
2019-05-14T12:11:35.196Z,1.10
2019-05-14T12:14:04.760Z,1.00
2019-05-14T12:16:34.253Z,1.00
2019-05-14T12:19:04.721Z,0.90
2019-05-14T12:21:34.462Z,1.20
2019-05-14T12:24:06.245Z,0.90
2019-05-14T12:26:38.345Z,1.20
2019-05-14T12:29:09.628Z,1.30
2019-05-14T12:31:38.761Z,1.37
2019-05-14T12:34:08.464Z,1.40
2019-05-14T12:36:38.917Z,1.27
2019-05-14T12:39:09.790Z,1.10
2019-05-14T12:41:39.508Z,1.03
2019-05-14T12:44:09.489Z,1.13
2019-05-14T12:46:39.838Z,1.23
2019-05-14T12:49:11.711Z,1.43
2019-05-14T12:51:42.539Z,0.93
2019-05-14T12:54:11.794Z,1.00
2019-05-14T12:56:41.316Z,1.00
2019-05-14T12:59:11.804Z,0.82
2019-05-14T13:01:41.404Z,1.23
2019-05-14T13:04:10.926Z,1.37
2019-05-14T13:06:40.491Z,1.00
2019-05-14T13:09:10.054Z,1.10
2019-05-14T13:11:41.550Z,1.23
2019-05-14T13:14:10.966Z,1.42
2019-05-14T13:16:40.546Z,1.20
2019-05-14T13:19:10.085Z,1.27
2019-05-14T13:21:39.596Z,1.40
2019-05-14T13:24:09.106Z,0.90
2019-05-14T13:26:39.164Z,0.90
2019-05-14T13:29:10.898Z,1.10
2019-05-14T13:31:40.133Z,1.10
2019-05-14T13:34:09.720Z,1.30
2019-05-14T13:36:40.146Z,1.07
2019-05-14T13:39:10.398Z,1.17
2019-05-14T13:41:41.889Z,1.17
2019-05-14T13:44:24.091Z,1.10
2019-05-14T13:46:42.649Z,1.17
2019-05-14T13:49:12.181Z,0.90
2019-05-14T13:51:41.679Z,1.10
2019-05-14T13:54:11.201Z,1.20
2019-05-14T13:56:40.818Z,0.97
2019-05-14T13:59:10.339Z,1.23
2019-05-14T14:01:39.828Z,1.30
2019-05-14T14:04:14.766Z,1.20
2019-05-14T14:06:40.618Z,1.00
2019-05-14T14:09:12.518Z,0.88
2019-05-14T14:11:41.475Z,1.10
2019-05-14T14:14:11.029Z,1.03
2019-05-14T14:16:40.570Z,1.20
2019-05-14T14:19:10.233Z,1.27
2019-05-14T14:21:40.755Z,1.00
2019-05-14T14:24:10.376Z,1.33
2019-05-14T14:26:39.940Z,1.40
2019-05-14T14:29:09.502Z,1.10
2019-05-14T14:31:41.652Z,0.90
2019-05-14T14:34:10.435Z,1.20
2019-05-14T14:36:39.983Z,1.30
2019-05-14T14:39:09.902Z,1.37
2019-05-14T14:41:39.462Z,1.27
2019-05-14T14:44:09.304Z,1.00
2019-05-14T14:46:39.819Z,1.00
2019-05-14T14:49:10.788Z,0.93
2019-05-14T14:51:44.881Z,0.80
2019-05-14T14:54:16.163Z,1.57
2019-05-14T14:56:43.356Z,1.17
2019-05-14T14:59:12.878Z,1.23
2019-05-14T15:01:43.603Z,1.10
2019-05-14T15:04:14.102Z,1.30
2019-05-14T15:06:43.695Z,1.10
2019-05-14T15:09:14.312Z,1.00
2019-05-14T15:11:43.845Z,1.10
2019-05-14T15:14:13.366Z,0.90
2019-05-14T15:16:42.867Z,1.00
2019-05-14T15:19:12.499Z,1.03
2019-05-14T15:21:42.006Z,0.93
2019-05-14T15:24:15.316Z,1.10
2019-05-14T15:26:42.741Z,1.00
2019-05-14T15:29:12.420Z,1.10
2019-05-14T15:31:41.918Z,1.13
2019-05-14T15:34:11.533Z,1.00
2019-05-14T15:36:41.848Z,1.20
2019-05-14T15:39:12.451Z,1.10
2019-05-14T15:41:42.025Z,1.10
2019-05-14T15:44:11.535Z,1.10
2019-05-14T15:46:42.121Z,1.00
2019-05-14T15:49:11.810Z,0.97
2019-05-14T15:51:41.377Z,1.23
2019-05-14T15:54:34.573Z,1.30
2019-05-14T15:56:42.208Z,1.33
2019-05-14T15:59:12.716Z,0.98
2019-05-14T16:01:42.181Z,1.10
2019-05-14T16:04:11.722Z,1.10
2019-05-14T16:06:41.288Z,1.10
2019-05-14T16:09:10.792Z,1.10
2019-05-14T16:11:40.287Z,1.10
2019-05-14T16:14:10.317Z,1.10
2019-05-14T16:16:39.989Z,1.20
2019-05-14T16:19:09.490Z,1.47
2019-05-14T16:21:39.026Z,1.00
2019-05-14T16:24:08.526Z,1.57
2019-05-14T16:26:38.045Z,0.90
2019-05-14T16:29:08.989Z,1.40
2019-05-14T16:31:43.243Z,1.25
2019-05-14T16:34:10.152Z,1.33
2019-05-14T16:36:41.200Z,1.00
2019-05-14T16:39:11.188Z,1.30
2019-05-14T16:41:40.658Z,1.00
2019-05-14T16:44:10.150Z,1.27
2019-05-14T16:46:40.055Z,1.00
2019-05-14T16:49:09.614Z,1.20
2019-05-14T16:51:39.212Z,1.37
2019-05-14T16:54:09.697Z,1.10
2019-05-14T16:56:41.326Z,1.07
2019-05-14T16:59:10.644Z,1.30
2019-05-14T17:01:40.159Z,1.30
2019-05-14T17:04:09.741Z,1.10
2019-05-14T17:06:39.326Z,1.20
2019-05-14T17:09:09.007Z,1.30
2019-05-14T17:11:39.122Z,1.23
2019-05-14T17:14:08.860Z,0.97
2019-05-14T17:16:38.442Z,1.37
2019-05-14T17:19:09.281Z,1.00
2019-05-14T17:21:39.219Z,0.90
2019-05-14T17:24:08.865Z,2.02
2019-05-14T17:26:38.423Z,0.88
2019-05-14T17:29:08.700Z,1.13
2019-05-14T17:31:39.226Z,0.90
2019-05-14T17:34:08.856Z,0.97
2019-05-14T17:36:38.960Z,1.27
2019-05-14T17:39:09.266Z,1.00
2019-05-14T17:41:42.017Z,1.30
2019-05-14T17:44:10.084Z,1.37
2019-05-14T17:46:39.828Z,1.10
2019-05-14T17:49:09.431Z,1.50
2019-05-14T17:51:39.271Z,1.27
2019-05-14T17:54:09.267Z,1.07
2019-05-14T17:56:41.227Z,1.10
2019-05-14T17:59:10.799Z,1.20
2019-05-14T18:01:40.298Z,1.10
2019-05-14T18:04:09.879Z,1.20
2019-05-14T18:06:39.364Z,1.30
2019-05-14T18:09:09.200Z,1.50
2019-05-14T18:11:40.149Z,1.20
2019-05-14T18:14:11.847Z,1.20
2019-05-14T18:16:41.039Z,1.10
2019-05-14T18:19:10.571Z,1.40
2019-05-14T18:21:40.057Z,1.15
2019-05-14T18:24:09.562Z,1.13
2019-05-14T18:26:39.061Z,1.10
2019-05-14T18:29:08.837Z,1.40
2019-05-14T18:31:44.367Z,1.10
2019-05-14T18:34:09.789Z,1.10
2019-05-14T18:36:39.669Z,1.30
2019-05-14T18:39:09.500Z,1.30
2019-05-14T18:41:39.169Z,1.15
2019-05-14T18:44:08.925Z,1.37
2019-05-14T18:46:39.365Z,1.20
2019-05-14T18:49:09.036Z,1.25
2019-05-14T18:51:38.517Z,1.15
2019-05-14T18:54:08.133Z,1.13
2019-05-14T18:56:38.455Z,1.40
2019-05-14T18:59:08.930Z,0.90
2019-05-14T19:01:39.753Z,1.47
2019-05-14T19:04:10.612Z,1.22
2019-05-14T19:06:40.097Z,1.53
2019-05-14T19:09:10.766Z,1.37
2019-05-14T19:11:40.437Z,1.17
2019-05-14T19:14:09.938Z,1.00
2019-05-14T19:16:40.601Z,1.27
2019-05-14T19:19:10.177Z,1.40
2019-05-14T19:21:39.666Z,1.20
2019-05-14T19:24:09.268Z,1.10
2019-05-14T19:26:40.394Z,1.10
2019-05-14T19:29:11.197Z,1.47
2019-05-14T19:31:40.906Z,1.30
2019-05-14T19:34:10.403Z,1.23
2019-05-14T19:36:40.155Z,1.40
2019-05-14T19:39:09.901Z,1.53
2019-05-14T19:41:39.376Z,1.13
2019-05-14T19:44:08.904Z,1.30
2019-05-14T19:46:39.368Z,1.40
2019-05-14T19:49:08.867Z,1.30
2019-05-14T19:51:38.844Z,1.10
2019-05-14T19:54:08.485Z,1.33
2019-05-14T19:56:52.083Z,1.72
2019-05-14T19:59:09.427Z,1.23
2019-05-14T20:01:38.997Z,1.12
2019-05-14T20:04:09.768Z,1.20
2019-05-14T20:06:39.245Z,1.43
2019-05-14T20:09:09.442Z,1.27
2019-05-14T20:11:39.928Z,1.27
2019-05-14T20:14:09.611Z,1.33
2019-05-14T20:16:39.485Z,1.20
2019-05-14T20:19:08.977Z,1.50
2019-05-14T20:21:38.968Z,1.50
2019-05-14T20:24:08.638Z,1.83
2019-05-14T20:26:39.161Z,1.22
2019-05-14T20:29:08.976Z,1.30
2019-05-14T20:31:39.654Z,1.30
2019-05-14T20:34:10.451Z,1.30
2019-05-14T20:36:40.081Z,1.30
2019-05-14T20:39:09.575Z,1.50
2019-05-14T20:41:42.112Z,1.30
2019-05-14T20:44:11.607Z,1.20
2019-05-14T20:46:41.087Z,1.00
2019-05-14T20:49:10.592Z,1.30
2019-05-14T20:51:40.079Z,1.40
2019-05-14T20:54:10.530Z,1.07
2019-05-14T20:56:40.476Z,1.10
2019-05-14T20:59:09.951Z,1.40
2019-05-14T21:01:39.528Z,1.50
2019-05-14T21:04:09.175Z,1.00
2019-05-14T21:06:39.266Z,1.12
2019-05-14T21:09:09.127Z,1.15
2019-05-14T21:11:39.052Z,1.20
2019-05-14T21:14:09.081Z,1.47
2019-05-14T21:16:39.816Z,1.45
2019-05-14T21:19:09.920Z,1.05
2019-05-14T21:21:40.041Z,1.20
2019-05-14T21:24:09.976Z,1.10
2019-05-14T21:26:40.325Z,1.40
2019-05-14T21:29:10.017Z,1.30
2019-05-14T21:31:39.903Z,1.00
2019-05-14T21:34:09.879Z,1.30
2019-05-14T21:36:41.600Z,1.45
2019-05-14T21:39:11.168Z,1.20
2019-05-14T21:41:40.670Z,1.30
2019-05-14T21:44:11.127Z,1.63
2019-05-14T21:46:40.629Z,1.43
2019-05-14T21:49:10.990Z,1.20
2019-05-14T21:51:40.816Z,1.15
2019-05-14T21:54:10.328Z,1.20
2019-05-14T21:56:40.332Z,1.17
2019-05-14T21:59:10.284Z,1.47
2019-05-14T22:01:40.415Z,1.40
2019-05-14T22:04:11.548Z,1.60
2019-05-14T22:06:41.604Z,1.30
2019-05-14T22:09:12.127Z,1.47
2019-05-14T22:11:41.729Z,1.23
2019-05-14T22:14:11.212Z,1.35
2019-05-14T22:16:40.709Z,1.33
2019-05-14T22:19:10.483Z,1.50
2019-05-14T22:21:41.809Z,1.60
2019-05-14T22:24:11.541Z,1.10
2019-05-14T22:26:41.039Z,1.50
2019-05-14T22:29:10.521Z,1.60
2019-05-14T22:31:40.706Z,1.30
2019-05-14T22:34:11.182Z,1.50
2019-05-14T22:36:40.656Z,1.60
2019-05-14T22:39:10.567Z,1.53
2019-05-14T22:41:41.072Z,1.27
2019-05-14T22:44:11.144Z,1.50
2019-05-14T22:46:40.628Z,1.70
2019-05-14T22:49:10.549Z,2.08
2019-05-14T22:51:40.542Z,1.62
2019-05-14T22:54:10.642Z,1.30
2019-05-14T22:56:41.095Z,1.60
2019-05-14T22:59:10.596Z,1.60
2019-05-14T23:01:40.743Z,1.40
2019-05-14T23:04:10.632Z,1.70
2019-05-14T23:06:40.626Z,1.22
2019-05-14T23:09:10.663Z,1.50
2019-05-14T23:11:40.664Z,1.82
2019-05-14T23:14:10.693Z,1.30
2019-05-14T23:16:41.937Z,1.45
2019-05-14T23:19:11.503Z,1.50
2019-05-14T23:21:41.159Z,1.70
2019-05-14T23:24:10.759Z,1.43
2019-05-14T23:26:40.626Z,1.50
2019-05-14T23:29:11.099Z,1.62
2019-05-14T23:31:40.691Z,1.40
2019-05-14T23:34:10.938Z,1.40
2019-05-14T23:36:40.738Z,1.47
2019-05-14T23:39:11.006Z,1.40
2019-05-14T23:41:40.686Z,1.47
2019-05-14T23:44:10.716Z,1.40
2019-05-14T23:46:41.220Z,1.25
2019-05-14T23:49:10.738Z,1.23
2019-05-14T23:51:40.723Z,1.60
2019-05-14T23:54:10.789Z,1.47
2019-05-14T23:56:40.734Z,1.35
2019-05-14T23:59:10.767Z,1.32
